TimeEDT,TemperatureF,Dew PointF,Humidity,Sea Level PressureIn,VisibilityMPH,Wind Direction,Wind SpeedMPH,Gust SpeedMPH,PrecipitationIn,Events,Conditions,WindDirDegrees,DateUTC
12:56 AM,62.1,60.1,93,30.16,4.0,NE,8.1,-,0.02,Rain,Light Rain,40,2013-08-17 04:56:00
1:31 AM,62.6,60.8,94,30.16,5.0,NNE,8.1,-,0.02,Rain,Light Rain,20,2013-08-17 05:31:00
1:56 AM,62.1,60.1,93,30.14,4.0,NNE,9.2,-,0.03,Rain,Light Rain,30,2013-08-17 05:56:00
2:56 AM,63.0,61.0,93,30.13,6.0,NNE,6.9,-,0.02,Rain,Light Rain,20,2013-08-17 06:56:00
3:12 AM,62.6,60.8,94,30.14,5.0,NNE,8.1,-,0.01,Rain,Light Rain,30,2013-08-17 07:12:00
3:31 AM,62.6,60.8,94,30.13,5.0,NE,10.4,-,0.02,Rain,Light Rain,40,2013-08-17 07:31:00
3:56 AM,63.0,61.0,93,30.12,7.0,NNE,6.9,-,0.02,Rain,Light Rain,30,2013-08-17 07:56:00
4:56 AM,63.0,61.0,93,30.13,4.0,NNE,6.9,-,0.02,Rain,Light Rain,20,2013-08-17 08:56:00
5:05 AM,62.6,60.8,94,30.14,2.5,NNE,8.1,-,0.01,Rain,Heavy Rain,30,2013-08-17 09:05:00
5:14 AM,62.6,60.8,94,30.14,4.0,NNE,8.1,-,0.02,Rain,Rain,20,2013-08-17 09:14:00
5:56 AM,63.0,61.0,93,30.14,3.0,NNE,9.2,-,0.06,Rain,Light Rain,30,2013-08-17 09:56:00
6:56 AM,63.0,61.0,93,30.15,5.0,NNE,6.9,-,0.07,Rain,Rain,30,2013-08-17 10:56:00
7:22 AM,62.6,60.8,94,30.15,4.0,NE,10.4,17.3,0.04,Rain,Rain,40,2013-08-17 11:22:00
7:56 AM,62.1,60.1,93,30.15,3.0,NE,8.1,-,0.10,Rain,Rain,40,2013-08-17 11:56:00
8:01 AM,62.6,60.8,94,30.16,3.0,NNE,8.1,-,0.01,Rain,Rain,30,2013-08-17 12:01:00
8:27 AM,62.6,60.8,94,30.16,5.0,NNE,6.9,-,0.07,Rain,Light Rain,30,2013-08-17 12:27:00
8:56 AM,63.0,61.0,93,30.16,7.0,NNE,6.9,-,0.13,Rain,Light Rain,20,2013-08-17 12:56:00
9:52 AM,62.6,62.6,100,30.18,2.0,NE,8.1,-,0.09,Rain,Heavy Rain,40,2013-08-17 13:52:00
9:56 AM,64.0,62.1,93,30.17,1.8,NE,9.2,-,0.10,Rain,Rain,40,2013-08-17 13:56:00
10:04 AM,64.4,62.6,94,30.18,2.5,NE,9.2,-,0.01,Rain,Rain,40,2013-08-17 14:04:00
10:12 AM,64.4,62.6,94,30.19,5.0,NNE,8.1,-,0.03,Rain,Light Rain,30,2013-08-17 14:12:00
10:56 AM,64.9,63.0,93,30.18,10.0,NE,11.5,-,0.09,,Overcast,40,2013-08-17 14:56:00
11:56 AM,66.0,63.0,90,30.18,10.0,NE,8.1,-,0.03,,Overcast,50,2013-08-17 15:56:00
12:56 PM,66.0,63.0,90,30.17,10.0,NE,4.6,-,N/A,,Overcast,40,2013-08-17 16:56:00
1:56 PM,66.0,64.0,93,30.17,4.0,NE,5.8,-,0.03,Rain,Light Rain,40,2013-08-17 17:56:00
2:56 PM,66.9,64.0,90,30.15,6.0,NE,4.6,-,0.04,Rain,Light Rain,40,2013-08-17 18:56:00
3:56 PM,66.9,64.9,93,30.14,8.0,NNE,4.6,-,0.04,Rain,Light Rain,30,2013-08-17 19:56:00
4:30 PM,68.0,64.4,88,30.15,10.0,NE,5.8,-,0.01,Rain,Light Rain,50,2013-08-17 20:30:00
4:44 PM,68.0,64.4,88,30.16,9.0,East,3.5,-,0.01,Rain,Light Rain,80,2013-08-17 20:44:00
4:56 PM,68.0,64.9,90,30.14,5.0,NE,3.5,-,0.02,Rain,Light Rain,40,2013-08-17 20:56:00
5:10 PM,66.2,64.4,94,30.16,3.0,NE,3.5,-,0.00,Rain,Light Rain,50,2013-08-17 21:10:00
5:25 PM,66.2,64.4,94,30.16,2.5,NE,5.8,-,0.01,Rain,Rain,50,2013-08-17 21:25:00
5:36 PM,66.2,64.4,94,30.15,2.0,NE,6.9,-,0.01,Rain,Heavy Rain,50,2013-08-17 21:36:00
5:56 PM,66.9,64.9,93,30.14,2.0,NE,5.8,-,0.03,Rain,Rain,40,2013-08-17 21:56:00
6:02 PM,66.2,64.4,94,30.15,3.0,NE,5.8,-,0.00,Rain,Light Rain,40,2013-08-17 22:02:00
6:33 PM,66.2,64.4,94,30.14,7.0,NE,8.1,-,0.03,Rain,Light Rain,40,2013-08-17 22:33:00
6:56 PM,66.9,64.9,93,30.13,9.0,NNE,8.1,-,0.05,Rain,Light Rain,30,2013-08-17 22:56:00
7:56 PM,66.9,64.9,93,30.15,10.0,East,3.5,-,0.05,Rain,Light Rain,80,2013-08-17 23:56:00
8:18 PM,66.2,64.4,94,30.16,10.0,Calm,Calm,-,0.02,Rain,Light Rain,0,2013-08-18 00:18:00
8:56 PM,66.9,64.9,93,30.16,10.0,Calm,Calm,-,0.04,Rain,Light Rain,0,2013-08-18 00:56:00
9:36 PM,66.2,64.4,94,30.18,10.0,ENE,3.5,-,0.01,Rain,Light Rain,60,2013-08-18 01:36:00
9:56 PM,66.9,64.9,93,30.17,9.0,ENE,3.5,-,0.01,Rain,Light Rain,60,2013-08-18 01:56:00
10:56 PM,66.9,64.9,93,30.18,10.0,ENE,4.6,-,0.01,,Overcast,60,2013-08-18 02:56:00
11:07 PM,66.2,64.4,94,30.19,8.0,ENE,3.5,-,0.00,Rain,Light Rain,70,2013-08-18 03:07:00
11:56 PM,66.9,64.9,93,30.17,8.0,NNE,4.6,-,0.02,Rain,Light Rain,30,2013-08-18 03:56:00